sensor_id;sensor_type;location;lat;lon;timestamp;P1;durP1;ratioP1;P2;durP2;ratioP2
43146;SDS011;28752;48.266;7.402;2022-12-07T00:01:40;20.85;;;14.35;;
43146;SDS011;28752;48.266;7.402;2022-12-07T00:04:08;23.17;;;14.25;;
43146;SDS011;28752;48.266;7.402;2022-12-07T00:06:36;22.30;;;14.13;;
43146;SDS011;28752;48.266;7.402;2022-12-07T00:09:04;23.15;;;13.30;;
43146;SDS011;28752;48.266;7.402;2022-12-07T00:11:30;22.73;;;14.32;;
43146;SDS011;28752;48.266;7.402;2022-12-07T00:13:58;20.00;;;12.85;;
43146;SDS011;28752;48.266;7.402;2022-12-07T00:16:26;23.08;;;13.65;;
43146;SDS011;28752;48.266;7.402;2022-12-07T00:18:53;24.42;;;14.68;;
43146;SDS011;28752;48.266;7.402;2022-12-07T00:21:29;21.92;;;14.05;;
43146;SDS011;28752;48.266;7.402;2022-12-07T00:23:57;23.35;;;14.85;;
43146;SDS011;28752;48.266;7.402;2022-12-07T00:26:26;22.13;;;13.93;;
43146;SDS011;28752;48.266;7.402;2022-12-07T00:28:57;21.75;;;13.23;;
43146;SDS011;28752;48.266;7.402;2022-12-07T00:31:25;22.42;;;13.75;;
43146;SDS011;28752;48.266;7.402;2022-12-07T00:33:52;20.23;;;13.38;;
43146;SDS011;28752;48.266;7.402;2022-12-07T00:36:19;20.85;;;13.48;;
43146;SDS011;28752;48.266;7.402;2022-12-07T00:38:46;23.52;;;14.40;;
43146;SDS011;28752;48.266;7.402;2022-12-07T00:41:13;24.08;;;14.85;;
43146;SDS011;28752;48.266;7.402;2022-12-07T00:43:40;23.65;;;14.40;;
43146;SDS011;28752;48.266;7.402;2022-12-07T00:46:07;22.30;;;14.05;;
43146;SDS011;28752;48.266;7.402;2022-12-07T00:48:33;23.40;;;14.75;;
43146;SDS011;28752;48.266;7.402;2022-12-07T00:50:59;23.93;;;15.07;;
43146;SDS011;28752;48.266;7.402;2022-12-07T00:53:25;24.58;;;14.40;;
43146;SDS011;28752;48.266;7.402;2022-12-07T01:00:42;21.73;;;13.15;;
43146;SDS011;28752;48.266;7.402;2022-12-07T01:03:09;23.30;;;14.30;;
43146;SDS011;28752;48.266;7.402;2022-12-07T01:05:36;22.67;;;14.23;;
43146;SDS011;28752;48.266;7.402;2022-12-07T01:08:01;21.23;;;12.90;;
43146;SDS011;28752;48.266;7.402;2022-12-07T01:10:27;21.40;;;13.98;;
43146;SDS011;28752;48.266;7.402;2022-12-07T01:12:55;23.05;;;14.63;;
43146;SDS011;28752;48.266;7.402;2022-12-07T01:15:20;23.63;;;14.87;;
43146;SDS011;28752;48.266;7.402;2022-12-07T01:17:45;24.77;;;15.70;;
43146;SDS011;28752;48.266;7.402;2022-12-07T01:20:11;25.70;;;16.33;;
43146;SDS011;28752;48.266;7.402;2022-12-07T01:22:37;24.98;;;15.48;;
43146;SDS011;28752;48.266;7.402;2022-12-07T01:25:04;24.75;;;15.20;;
43146;SDS011;28752;48.266;7.402;2022-12-07T01:27:30;25.73;;;14.68;;
43146;SDS011;28752;48.266;7.402;2022-12-07T01:29:55;21.10;;;13.83;;
43146;SDS011;28752;48.266;7.402;2022-12-07T01:32:21;21.60;;;13.10;;
43146;SDS011;28752;48.266;7.402;2022-12-07T01:34:47;22.00;;;12.80;;
43146;SDS011;28752;48.266;7.402;2022-12-07T01:37:13;19.92;;;12.13;;
43146;SDS011;28752;48.266;7.402;2022-12-07T01:39:38;18.53;;;11.43;;
43146;SDS011;28752;48.266;7.402;2022-12-07T01:42:04;16.30;;;10.67;;
43146;SDS011;28752;48.266;7.402;2022-12-07T01:44:29;16.17;;;9.80;;
43146;SDS011;28752;48.266;7.402;2022-12-07T01:46:59;16.98;;;10.00;;
43146;SDS011;28752;48.266;7.402;2022-12-07T01:49:28;13.95;;;8.98;;
43146;SDS011;28752;48.266;7.402;2022-12-07T01:52:04;15.32;;;8.85;;
43146;SDS011;28752;48.266;7.402;2022-12-07T01:54:54;13.07;;;8.60;;
43146;SDS011;28752;48.266;7.402;2022-12-07T01:57:24;12.95;;;8.75;;
43146;SDS011;28752;48.266;7.402;2022-12-07T01:59:50;12.05;;;7.13;;
43146;SDS011;28752;48.266;7.402;2022-12-07T02:02:22;11.25;;;7.68;;
43146;SDS011;28752;48.266;7.402;2022-12-07T02:04:51;12.05;;;8.05;;
43146;SDS011;28752;48.266;7.402;2022-12-07T02:07:18;11.80;;;7.65;;
43146;SDS011;28752;48.266;7.402;2022-12-07T02:09:45;14.98;;;8.80;;
43146;SDS011;28752;48.266;7.402;2022-12-07T02:12:11;15.20;;;9.27;;
43146;SDS011;28752;48.266;7.402;2022-12-07T02:14:36;13.27;;;8.93;;
43146;SDS011;28752;48.266;7.402;2022-12-07T02:17:05;15.55;;;9.32;;
43146;SDS011;28752;48.266;7.402;2022-12-07T02:22:54;14.32;;;8.75;;
43146;SDS011;28752;48.266;7.402;2022-12-07T02:30:44;12.40;;;8.10;;
43146;SDS011;28752;48.266;7.402;2022-12-07T02:33:14;14.02;;;9.30;;
43146;SDS011;28752;48.266;7.402;2022-12-07T02:35:48;13.07;;;9.20;;
43146;SDS011;28752;48.266;7.402;2022-12-07T02:38:24;13.60;;;8.77;;
43146;SDS011;28752;48.266;7.402;2022-12-07T02:43:25;14.23;;;8.80;;
43146;SDS011;28752;48.266;7.402;2022-12-07T02:45:54;15.00;;;9.35;;
43146;SDS011;28752;48.266;7.402;2022-12-07T02:48:24;14.48;;;8.75;;
43146;SDS011;28752;48.266;7.402;2022-12-07T02:50:52;14.10;;;8.90;;
43146;SDS011;28752;48.266;7.402;2022-12-07T02:53:41;13.80;;;9.05;;
43146;SDS011;28752;48.266;7.402;2022-12-07T02:59:02;15.20;;;9.05;;
43146;SDS011;28752;48.266;7.402;2022-12-07T03:08:09;25.02;;;14.32;;
43146;SDS011;28752;48.266;7.402;2022-12-07T03:18:09;23.73;;;14.63;;
43146;SDS011;28752;48.266;7.402;2022-12-07T03:20:39;22.80;;;13.93;;
43146;SDS011;28752;48.266;7.402;2022-12-07T03:23:07;22.17;;;12.85;;
43146;SDS011;28752;48.266;7.402;2022-12-07T03:25:35;26.23;;;13.38;;
43146;SDS011;28752;48.266;7.402;2022-12-07T03:28:06;22.10;;;12.73;;
43146;SDS011;28752;48.266;7.402;2022-12-07T03:30:42;21.58;;;12.70;;
43146;SDS011;28752;48.266;7.402;2022-12-07T03:35:53;21.13;;;12.57;;
43146;SDS011;28752;48.266;7.402;2022-12-07T03:41:16;18.35;;;11.82;;
43146;SDS011;28752;48.266;7.402;2022-12-07T03:43:47;20.50;;;12.13;;
43146;SDS011;28752;48.266;7.402;2022-12-07T03:51:50;20.80;;;12.27;;
43146;SDS011;28752;48.266;7.402;2022-12-07T03:56:54;19.38;;;12.02;;
43146;SDS011;28752;48.266;7.402;2022-12-07T03:59:21;24.48;;;12.77;;
43146;SDS011;28752;48.266;7.402;2022-12-07T04:04:22;19.02;;;11.73;;
43146;SDS011;28752;48.266;7.402;2022-12-07T04:06:49;20.30;;;11.05;;
43146;SDS011;28752;48.266;7.402;2022-12-07T04:09:15;18.95;;;10.35;;
43146;SDS011;28752;48.266;7.402;2022-12-07T04:11:41;11.73;;;7.35;;
43146;SDS011;28752;48.266;7.402;2022-12-07T04:14:06;13.83;;;7.63;;
43146;SDS011;28752;48.266;7.402;2022-12-07T04:16:44;12.77;;;7.38;;
43146;SDS011;28752;48.266;7.402;2022-12-07T04:19:11;11.15;;;6.72;;
43146;SDS011;28752;48.266;7.402;2022-12-07T04:21:37;10.85;;;6.45;;
43146;SDS011;28752;48.266;7.402;2022-12-07T04:24:03;8.30;;;5.03;;
43146;SDS011;28752;48.266;7.402;2022-12-07T04:26:29;7.95;;;4.68;;
43146;SDS011;28752;48.266;7.402;2022-12-07T04:28:54;7.67;;;4.50;;
43146;SDS011;28752;48.266;7.402;2022-12-07T04:31:19;9.60;;;5.13;;
43146;SDS011;28752;48.266;7.402;2022-12-07T04:33:45;8.70;;;5.03;;
43146;SDS011;28752;48.266;7.402;2022-12-07T04:36:10;9.97;;;5.53;;
43146;SDS011;28752;48.266;7.402;2022-12-07T04:38:36;10.93;;;6.13;;
43146;SDS011;28752;48.266;7.402;2022-12-07T04:41:08;11.60;;;6.30;;
43146;SDS011;28752;48.266;7.402;2022-12-07T04:43:34;12.43;;;6.47;;
43146;SDS011;28752;48.266;7.402;2022-12-07T04:46:01;13.07;;;7.63;;
43146;SDS011;28752;48.266;7.402;2022-12-07T04:48:27;11.88;;;7.18;;
43146;SDS011;28752;48.266;7.402;2022-12-07T04:50:52;13.90;;;8.27;;
43146;SDS011;28752;48.266;7.402;2022-12-07T04:53:18;12.90;;;8.10;;
43146;SDS011;28752;48.266;7.402;2022-12-07T04:55:44;13.50;;;7.65;;
43146;SDS011;28752;48.266;7.402;2022-12-07T04:58:11;13.55;;;8.25;;
43146;SDS011;28752;48.266;7.402;2022-12-07T05:05:27;14.77;;;7.87;;
43146;SDS011;28752;48.266;7.402;2022-12-07T05:07:53;13.90;;;7.73;;
43146;SDS011;28752;48.266;7.402;2022-12-07T05:10:18;13.20;;;7.82;;
43146;SDS011;28752;48.266;7.402;2022-12-07T05:12:44;26.70;;;12.70;;
43146;SDS011;28752;48.266;7.402;2022-12-07T05:15:10;17.33;;;9.90;;
43146;SDS011;28752;48.266;7.402;2022-12-07T05:17:36;13.75;;;7.82;;
43146;SDS011;28752;48.266;7.402;2022-12-07T05:20:01;13.33;;;7.43;;
43146;SDS011;28752;48.266;7.402;2022-12-07T05:22:27;13.80;;;7.30;;
43146;SDS011;28752;48.266;7.402;2022-12-07T05:24:55;13.45;;;7.38;;
43146;SDS011;28752;48.266;7.402;2022-12-07T05:27:20;13.05;;;7.07;;
43146;SDS011;28752;48.266;7.402;2022-12-07T05:29:46;13.00;;;7.00;;
43146;SDS011;28752;48.266;7.402;2022-12-07T05:32:12;14.05;;;7.50;;
43146;SDS011;28752;48.266;7.402;2022-12-07T05:34:37;12.20;;;7.23;;
43146;SDS011;28752;48.266;7.402;2022-12-07T05:37:03;15.20;;;8.23;;
43146;SDS011;28752;48.266;7.402;2022-12-07T05:39:28;14.33;;;8.20;;
43146;SDS011;28752;48.266;7.402;2022-12-07T05:41:54;14.07;;;7.57;;
43146;SDS011;28752;48.266;7.402;2022-12-07T05:44:37;11.27;;;6.60;;
43146;SDS011;28752;48.266;7.402;2022-12-07T05:47:10;11.73;;;5.45;;
43146;SDS011;28752;48.266;7.402;2022-12-07T05:49:36;11.93;;;6.47;;
43146;SDS011;28752;48.266;7.402;2022-12-07T05:52:02;12.63;;;6.87;;
43146;SDS011;28752;48.266;7.402;2022-12-07T05:54:28;13.55;;;6.72;;
43146;SDS011;28752;48.266;7.402;2022-12-07T05:56:53;12.93;;;6.43;;
43146;SDS011;28752;48.266;7.402;2022-12-07T05:59:19;10.00;;;5.70;;
43146;SDS011;28752;48.266;7.402;2022-12-07T06:02:09;12.82;;;7.18;;
43146;SDS011;28752;48.266;7.402;2022-12-07T06:04:39;13.80;;;7.10;;
43146;SDS011;28752;48.266;7.402;2022-12-07T06:07:07;15.23;;;6.88;;
43146;SDS011;28752;48.266;7.402;2022-12-07T06:09:33;13.63;;;6.97;;
43146;SDS011;28752;48.266;7.402;2022-12-07T06:12:00;14.40;;;6.95;;
43146;SDS011;28752;48.266;7.402;2022-12-07T06:14:44;15.35;;;6.35;;
43146;SDS011;28752;48.266;7.402;2022-12-07T06:17:10;13.10;;;6.72;;
43146;SDS011;28752;48.266;7.402;2022-12-07T06:19:36;14.88;;;7.30;;
43146;SDS011;28752;48.266;7.402;2022-12-07T06:22:01;15.40;;;7.40;;
43146;SDS011;28752;48.266;7.402;2022-12-07T06:24:29;13.30;;;7.15;;
43146;SDS011;28752;48.266;7.402;2022-12-07T06:26:55;14.90;;;7.90;;
43146;SDS011;28752;48.266;7.402;2022-12-07T06:29:20;14.47;;;7.17;;
43146;SDS011;28752;48.266;7.402;2022-12-07T06:34:13;13.43;;;6.75;;
43146;SDS011;28752;48.266;7.402;2022-12-07T06:36:40;13.13;;;7.28;;
43146;SDS011;28752;48.266;7.402;2022-12-07T06:39:06;13.05;;;6.53;;
43146;SDS011;28752;48.266;7.402;2022-12-07T06:41:34;11.77;;;6.50;;
43146;SDS011;28752;48.266;7.402;2022-12-07T06:44:01;14.50;;;7.00;;
43146;SDS011;28752;48.266;7.402;2022-12-07T06:46:26;14.03;;;6.60;;
43146;SDS011;28752;48.266;7.402;2022-12-07T06:48:52;13.70;;;6.93;;
43146;SDS011;28752;48.266;7.402;2022-12-07T06:51:17;12.90;;;6.70;;
43146;SDS011;28752;48.266;7.402;2022-12-07T06:53:43;13.00;;;6.63;;
43146;SDS011;28752;48.266;7.402;2022-12-07T06:56:08;14.00;;;7.50;;
43146;SDS011;28752;48.266;7.402;2022-12-07T06:58:33;13.47;;;7.07;;
43146;SDS011;28752;48.266;7.402;2022-12-07T07:00:59;14.40;;;7.53;;
43146;SDS011;28752;48.266;7.402;2022-12-07T07:03:24;12.60;;;6.93;;
43146;SDS011;28752;48.266;7.402;2022-12-07T07:05:50;13.67;;;7.77;;
43146;SDS011;28752;48.266;7.402;2022-12-07T07:08:15;14.93;;;7.60;;
43146;SDS011;28752;48.266;7.402;2022-12-07T07:10:41;16.07;;;8.40;;
43146;SDS011;28752;48.266;7.402;2022-12-07T07:13:07;15.48;;;8.18;;
43146;SDS011;28752;48.266;7.402;2022-12-07T07:20:24;14.37;;;6.97;;
43146;SDS011;28752;48.266;7.402;2022-12-07T07:22:49;14.57;;;7.80;;
43146;SDS011;28752;48.266;7.402;2022-12-07T07:25:15;14.47;;;7.63;;
43146;SDS011;28752;48.266;7.402;2022-12-07T07:27:40;23.33;;;10.95;;
43146;SDS011;28752;48.266;7.402;2022-12-07T07:30:06;21.85;;;11.05;;
43146;SDS011;28752;48.266;7.402;2022-12-07T07:32:32;14.65;;;8.40;;
43146;SDS011;28752;48.266;7.402;2022-12-07T07:34:58;17.90;;;9.33;;
43146;SDS011;28752;48.266;7.402;2022-12-07T07:37:23;14.03;;;7.20;;
43146;SDS011;28752;48.266;7.402;2022-12-07T07:39:48;14.43;;;6.90;;
43146;SDS011;28752;48.266;7.402;2022-12-07T07:42:14;13.63;;;7.43;;
43146;SDS011;28752;48.266;7.402;2022-12-07T07:44:39;13.20;;;6.93;;
43146;SDS011;28752;48.266;7.402;2022-12-07T07:47:05;15.40;;;7.60;;
43146;SDS011;28752;48.266;7.402;2022-12-07T07:49:30;13.33;;;7.30;;
43146;SDS011;28752;48.266;7.402;2022-12-07T07:51:55;14.90;;;6.87;;
43146;SDS011;28752;48.266;7.402;2022-12-07T07:54:21;14.60;;;8.00;;
43146;SDS011;28752;48.266;7.402;2022-12-07T07:56:46;11.97;;;6.97;;
43146;SDS011;28752;48.266;7.402;2022-12-07T07:59:12;14.67;;;8.57;;
43146;SDS011;28752;48.266;7.402;2022-12-07T08:01:37;16.57;;;9.30;;
43146;SDS011;28752;48.266;7.402;2022-12-07T08:04:02;16.67;;;8.20;;
43146;SDS011;28752;48.266;7.402;2022-12-07T08:06:28;21.57;;;14.67;;
43146;SDS011;28752;48.266;7.402;2022-12-07T08:08:53;15.00;;;8.00;;
43146;SDS011;28752;48.266;7.402;2022-12-07T08:11:18;19.83;;;14.43;;
43146;SDS011;28752;48.266;7.402;2022-12-07T08:13:47;15.67;;;9.40;;
43146;SDS011;28752;48.266;7.402;2022-12-07T08:16:12;14.45;;;8.13;;
43146;SDS011;28752;48.266;7.402;2022-12-07T08:18:40;13.95;;;7.43;;
43146;SDS011;28752;48.266;7.402;2022-12-07T08:21:06;16.27;;;8.57;;
43146;SDS011;28752;48.266;7.402;2022-12-07T08:23:34;16.02;;;8.45;;
43146;SDS011;28752;48.266;7.402;2022-12-07T08:26:00;15.33;;;7.73;;
43146;SDS011;28752;48.266;7.402;2022-12-07T08:28:27;14.35;;;7.75;;
43146;SDS011;28752;48.266;7.402;2022-12-07T08:30:58;13.95;;;8.32;;
43146;SDS011;28752;48.266;7.402;2022-12-07T08:33:35;14.32;;;8.38;;
43146;SDS011;28752;48.266;7.402;2022-12-07T08:36:01;14.45;;;8.55;;
43146;SDS011;28752;48.266;7.402;2022-12-07T08:38:31;15.10;;;8.70;;
43146;SDS011;28752;48.266;7.402;2022-12-07T08:40:57;15.73;;;8.47;;
43146;SDS011;28752;48.266;7.402;2022-12-07T08:48:20;14.77;;;8.48;;
43146;SDS011;28752;48.266;7.402;2022-12-07T08:50:49;13.73;;;8.40;;
43146;SDS011;28752;48.266;7.402;2022-12-07T08:53:15;15.55;;;8.50;;
43146;SDS011;28752;48.266;7.402;2022-12-07T08:55:41;14.25;;;8.40;;
43146;SDS011;28752;48.266;7.402;2022-12-07T08:58:06;14.23;;;8.10;;
43146;SDS011;28752;48.266;7.402;2022-12-07T09:00:31;13.87;;;7.83;;
43146;SDS011;28752;48.266;7.402;2022-12-07T09:02:57;15.00;;;9.27;;
43146;SDS011;28752;48.266;7.402;2022-12-07T09:05:22;12.70;;;7.10;;
43146;SDS011;28752;48.266;7.402;2022-12-07T09:07:48;14.60;;;8.00;;
43146;SDS011;28752;48.266;7.402;2022-12-07T09:10:17;13.48;;;7.38;;
43146;SDS011;28752;48.266;7.402;2022-12-07T09:12:43;12.10;;;7.33;;
43146;SDS011;28752;48.266;7.402;2022-12-07T09:15:08;15.60;;;8.53;;
43146;SDS011;28752;48.266;7.402;2022-12-07T09:17:34;15.33;;;7.30;;
43146;SDS011;28752;48.266;7.402;2022-12-07T09:20:00;15.15;;;8.63;;
43146;SDS011;28752;48.266;7.402;2022-12-07T09:22:30;14.73;;;7.90;;
43146;SDS011;28752;48.266;7.402;2022-12-07T09:24:56;12.13;;;7.55;;
43146;SDS011;28752;48.266;7.402;2022-12-07T09:27:22;13.73;;;7.75;;
43146;SDS011;28752;48.266;7.402;2022-12-07T09:29:48;13.80;;;8.33;;
43146;SDS011;28752;48.266;7.402;2022-12-07T09:32:13;14.03;;;7.87;;
43146;SDS011;28752;48.266;7.402;2022-12-07T09:34:39;13.10;;;7.43;;
43146;SDS011;28752;48.266;7.402;2022-12-07T09:37:04;13.43;;;7.37;;
43146;SDS011;28752;48.266;7.402;2022-12-07T09:39:31;14.95;;;8.90;;
43146;SDS011;28752;48.266;7.402;2022-12-07T09:41:57;12.93;;;7.80;;
43146;SDS011;28752;48.266;7.402;2022-12-07T09:44:24;13.88;;;7.70;;
43146;SDS011;28752;48.266;7.402;2022-12-07T09:46:51;17.70;;;9.32;;
43146;SDS011;28752;48.266;7.402;2022-12-07T09:49:19;16.25;;;8.85;;
43146;SDS011;28752;48.266;7.402;2022-12-07T09:51:46;15.02;;;8.75;;
43146;SDS011;28752;48.266;7.402;2022-12-07T09:54:12;14.40;;;8.10;;
43146;SDS011;28752;48.266;7.402;2022-12-07T09:56:39;15.82;;;8.65;;
43146;SDS011;28752;48.266;7.402;2022-12-07T09:59:05;14.85;;;9.32;;
43146;SDS011;28752;48.266;7.402;2022-12-07T10:01:31;16.03;;;9.57;;
43146;SDS011;28752;48.266;7.402;2022-12-07T10:04:06;17.33;;;9.88;;
43146;SDS011;28752;48.266;7.402;2022-12-07T10:06:37;16.90;;;10.57;;
43146;SDS011;28752;48.266;7.402;2022-12-07T10:09:13;17.50;;;10.65;;
43146;SDS011;28752;48.266;7.402;2022-12-07T10:12:01;17.27;;;11.25;;
43146;SDS011;28752;48.266;7.402;2022-12-07T10:14:30;17.05;;;10.55;;
43146;SDS011;28752;48.266;7.402;2022-12-07T10:16:57;17.88;;;11.10;;
43146;SDS011;28752;48.266;7.402;2022-12-07T10:22:11;22.38;;;12.05;;
43146;SDS011;28752;48.266;7.402;2022-12-07T10:24:39;16.52;;;11.02;;
43146;SDS011;28752;48.266;7.402;2022-12-07T10:30:02;19.07;;;12.13;;
43146;SDS011;28752;48.266;7.402;2022-12-07T10:32:33;19.90;;;12.48;;
43146;SDS011;28752;48.266;7.402;2022-12-07T10:37:55;18.63;;;10.95;;
43146;SDS011;28752;48.266;7.402;2022-12-07T10:43:04;16.77;;;10.40;;
43146;SDS011;28752;48.266;7.402;2022-12-07T10:45:32;17.55;;;10.90;;
43146;SDS011;28752;48.266;7.402;2022-12-07T10:48:00;19.30;;;11.25;;
43146;SDS011;28752;48.266;7.402;2022-12-07T10:53:23;17.75;;;11.80;;
43146;SDS011;28752;48.266;7.402;2022-12-07T10:58:39;42.45;;;27.67;;
43146;SDS011;28752;48.266;7.402;2022-12-07T11:18:22;15.27;;;10.10;;
43146;SDS011;28752;48.266;7.402;2022-12-07T11:24:01;15.98;;;11.00;;
43146;SDS011;28752;48.266;7.402;2022-12-07T11:27:37;15.75;;;9.82;;
43146;SDS011;28752;48.266;7.402;2022-12-07T11:37:32;13.68;;;9.30;;
43146;SDS011;28752;48.266;7.402;2022-12-07T11:40:04;13.98;;;8.48;;
43146;SDS011;28752;48.266;7.402;2022-12-07T11:42:49;16.73;;;10.23;;
43146;SDS011;28752;48.266;7.402;2022-12-07T11:45:23;12.32;;;8.82;;
43146;SDS011;28752;48.266;7.402;2022-12-07T11:50:40;13.82;;;8.93;;
43146;SDS011;28752;48.266;7.402;2022-12-07T11:55:56;13.05;;;8.77;;
43146;SDS011;28752;48.266;7.402;2022-12-07T12:06:34;11.45;;;7.25;;
43146;SDS011;28752;48.266;7.402;2022-12-07T12:09:11;10.45;;;6.55;;
43146;SDS011;28752;48.266;7.402;2022-12-07T12:14:40;10.68;;;6.55;;
43146;SDS011;28752;48.266;7.402;2022-12-07T12:20:00;9.00;;;6.35;;
43146;SDS011;28752;48.266;7.402;2022-12-07T12:22:58;8.95;;;5.32;;
43146;SDS011;28752;48.266;7.402;2022-12-07T12:25:40;9.10;;;5.72;;
43146;SDS011;28752;48.266;7.402;2022-12-07T12:33:50;9.82;;;5.57;;
43146;SDS011;28752;48.266;7.402;2022-12-07T12:36:42;10.75;;;5.53;;
43146;SDS011;28752;48.266;7.402;2022-12-07T12:46:50;10.13;;;5.95;;
43146;SDS011;28752;48.266;7.402;2022-12-07T12:54:19;10.83;;;5.87;;
43146;SDS011;28752;48.266;7.402;2022-12-07T12:56:55;8.88;;;4.50;;
43146;SDS011;28752;48.266;7.402;2022-12-07T12:59:32;9.23;;;4.97;;
43146;SDS011;28752;48.266;7.402;2022-12-07T13:04:55;9.52;;;5.43;;
43146;SDS011;28752;48.266;7.402;2022-12-07T13:13:00;13.27;;;7.32;;
43146;SDS011;28752;48.266;7.402;2022-12-07T13:20:58;10.90;;;6.67;;
43146;SDS011;28752;48.266;7.402;2022-12-07T13:26:18;11.23;;;6.88;;
43146;SDS011;28752;48.266;7.402;2022-12-07T13:31:44;10.15;;;6.13;;
43146;SDS011;28752;48.266;7.402;2022-12-07T13:34:30;9.30;;;6.00;;
43146;SDS011;28752;48.266;7.402;2022-12-07T13:37:43;11.68;;;7.30;;
43146;SDS011;28752;48.266;7.402;2022-12-07T13:39:51;7.82;;;4.30;;
43146;SDS011;28752;48.266;7.402;2022-12-07T13:42:20;5.25;;;3.20;;
43146;SDS011;28752;48.266;7.402;2022-12-07T13:44:47;6.60;;;3.10;;
43146;SDS011;28752;48.266;7.402;2022-12-07T13:47:32;6.60;;;2.97;;
43146;SDS011;28752;48.266;7.402;2022-12-07T13:50:00;5.63;;;2.38;;
43146;SDS011;28752;48.266;7.402;2022-12-07T13:52:27;6.60;;;3.38;;
43146;SDS011;28752;48.266;7.402;2022-12-07T13:54:58;8.18;;;3.95;;
43146;SDS011;28752;48.266;7.402;2022-12-07T13:57:25;5.45;;;2.88;;
43146;SDS011;28752;48.266;7.402;2022-12-07T13:59:51;11.43;;;5.10;;
43146;SDS011;28752;48.266;7.402;2022-12-07T14:02:21;8.07;;;3.80;;
43146;SDS011;28752;48.266;7.402;2022-12-07T14:04:50;5.20;;;2.20;;
43146;SDS011;28752;48.266;7.402;2022-12-07T14:09:56;13.40;;;5.85;;
43146;SDS011;28752;48.266;7.402;2022-12-07T14:12:24;5.22;;;2.30;;
43146;SDS011;28752;48.266;7.402;2022-12-07T14:14:51;8.30;;;3.50;;
43146;SDS011;28752;48.266;7.402;2022-12-07T14:17:20;5.80;;;2.97;;
43146;SDS011;28752;48.266;7.402;2022-12-07T14:24:48;7.60;;;3.70;;
43146;SDS011;28752;48.266;7.402;2022-12-07T14:27:18;6.50;;;3.58;;
43146;SDS011;28752;48.266;7.402;2022-12-07T14:29:48;7.38;;;3.92;;
43146;SDS011;28752;48.266;7.402;2022-12-07T14:32:24;8.13;;;4.63;;
43146;SDS011;28752;48.266;7.402;2022-12-07T14:37:23;6.85;;;3.80;;
43146;SDS011;28752;48.266;7.402;2022-12-07T14:39:49;6.35;;;2.90;;
43146;SDS011;28752;48.266;7.402;2022-12-07T14:42:15;6.33;;;2.77;;
43146;SDS011;28752;48.266;7.402;2022-12-07T14:44:40;5.90;;;2.70;;
43146;SDS011;28752;48.266;7.402;2022-12-07T14:47:08;4.43;;;2.30;;
43146;SDS011;28752;48.266;7.402;2022-12-07T14:49:36;5.30;;;3.13;;
43146;SDS011;28752;48.266;7.402;2022-12-07T14:52:02;7.27;;;4.53;;
43146;SDS011;28752;48.266;7.402;2022-12-07T14:54:29;5.80;;;3.60;;
43146;SDS011;28752;48.266;7.402;2022-12-07T14:56:56;6.38;;;3.50;;
43146;SDS011;28752;48.266;7.402;2022-12-07T14:59:21;5.57;;;3.37;;
43146;SDS011;28752;48.266;7.402;2022-12-07T15:01:47;5.93;;;2.90;;
43146;SDS011;28752;48.266;7.402;2022-12-07T15:04:12;14.87;;;8.17;;
43146;SDS011;28752;48.266;7.402;2022-12-07T15:06:38;7.47;;;3.90;;
43146;SDS011;28752;48.266;7.402;2022-12-07T15:09:03;5.70;;;3.00;;
43146;SDS011;28752;48.266;7.402;2022-12-07T15:11:29;6.90;;;3.78;;
43146;SDS011;28752;48.266;7.402;2022-12-07T15:13:55;6.90;;;3.57;;
43146;SDS011;28752;48.266;7.402;2022-12-07T15:16:32;7.93;;;4.32;;
43146;SDS011;28752;48.266;7.402;2022-12-07T15:18:58;4.85;;;2.17;;
43146;SDS011;28752;48.266;7.402;2022-12-07T15:21:23;5.73;;;3.03;;
43146;SDS011;28752;48.266;7.402;2022-12-07T15:23:49;5.13;;;2.67;;
43146;SDS011;28752;48.266;7.402;2022-12-07T15:26:14;6.20;;;3.13;;
43146;SDS011;28752;48.266;7.402;2022-12-07T15:28:40;6.20;;;2.70;;
43146;SDS011;28752;48.266;7.402;2022-12-07T15:31:15;5.78;;;2.45;;
43146;SDS011;28752;48.266;7.402;2022-12-07T15:38:39;5.22;;;2.50;;
43146;SDS011;28752;48.266;7.402;2022-12-07T15:41:04;6.23;;;2.47;;
43146;SDS011;28752;48.266;7.402;2022-12-07T15:43:30;7.17;;;3.57;;
43146;SDS011;28752;48.266;7.402;2022-12-07T15:46:15;4.90;;;2.60;;
43146;SDS011;28752;48.266;7.402;2022-12-07T15:48:40;6.80;;;4.50;;
43146;SDS011;28752;48.266;7.402;2022-12-07T15:51:06;7.40;;;4.10;;
43146;SDS011;28752;48.266;7.402;2022-12-07T15:53:34;6.35;;;3.30;;
43146;SDS011;28752;48.266;7.402;2022-12-07T15:56:00;6.65;;;3.00;;
43146;SDS011;28752;48.266;7.402;2022-12-07T15:58:26;4.97;;;2.70;;
43146;SDS011;28752;48.266;7.402;2022-12-07T16:00:51;6.85;;;4.05;;
43146;SDS011;28752;48.266;7.402;2022-12-07T16:03:17;6.97;;;3.80;;
43146;SDS011;28752;48.266;7.402;2022-12-07T16:05:48;11.57;;;7.07;;
43146;SDS011;28752;48.266;7.402;2022-12-07T16:08:17;9.18;;;5.45;;
43146;SDS011;28752;48.266;7.402;2022-12-07T16:10:43;8.20;;;5.50;;
43146;SDS011;28752;48.266;7.402;2022-12-07T16:13:09;10.90;;;7.50;;
43146;SDS011;28752;48.266;7.402;2022-12-07T16:15:41;11.13;;;6.70;;
43146;SDS011;28752;48.266;7.402;2022-12-07T16:18:07;9.07;;;4.88;;
43146;SDS011;28752;48.266;7.402;2022-12-07T16:20:33;5.88;;;3.42;;
43146;SDS011;28752;48.266;7.402;2022-12-07T16:22:58;6.83;;;3.87;;
43146;SDS011;28752;48.266;7.402;2022-12-07T16:25:24;7.25;;;3.80;;
43146;SDS011;28752;48.266;7.402;2022-12-07T16:27:50;7.73;;;4.83;;
43146;SDS011;28752;48.266;7.402;2022-12-07T16:30:16;8.55;;;5.78;;
43146;SDS011;28752;48.266;7.402;2022-12-07T16:32:42;8.93;;;4.57;;
43146;SDS011;28752;48.266;7.402;2022-12-07T16:35:07;7.55;;;4.53;;
43146;SDS011;28752;48.266;7.402;2022-12-07T16:37:33;8.95;;;5.82;;
43146;SDS011;28752;48.266;7.402;2022-12-07T16:39:59;11.53;;;5.77;;
43146;SDS011;28752;48.266;7.402;2022-12-07T16:42:24;11.30;;;6.30;;
43146;SDS011;28752;48.266;7.402;2022-12-07T16:44:50;16.88;;;8.25;;
43146;SDS011;28752;48.266;7.402;2022-12-07T16:47:15;9.27;;;5.13;;
43146;SDS011;28752;48.266;7.402;2022-12-07T16:49:40;11.70;;;6.23;;
43146;SDS011;28752;48.266;7.402;2022-12-07T16:52:07;13.35;;;7.15;;
43146;SDS011;28752;48.266;7.402;2022-12-07T16:54:32;13.53;;;7.27;;
43146;SDS011;28752;48.266;7.402;2022-12-07T16:56:59;11.95;;;5.60;;
43146;SDS011;28752;48.266;7.402;2022-12-07T16:59:24;12.63;;;7.40;;
43146;SDS011;28752;48.266;7.402;2022-12-07T17:01:50;15.93;;;9.07;;
43146;SDS011;28752;48.266;7.402;2022-12-07T17:04:15;17.23;;;9.70;;
43146;SDS011;28752;48.266;7.402;2022-12-07T17:06:40;25.57;;;12.30;;
43146;SDS011;28752;48.266;7.402;2022-12-07T17:09:06;20.43;;;13.00;;
43146;SDS011;28752;48.266;7.402;2022-12-07T17:11:34;34.95;;;19.30;;
43146;SDS011;28752;48.266;7.402;2022-12-07T17:14:00;27.58;;;15.82;;
43146;SDS011;28752;48.266;7.402;2022-12-07T17:16:44;32.95;;;18.80;;
43146;SDS011;28752;48.266;7.402;2022-12-07T17:19:10;29.73;;;18.37;;
43146;SDS011;28752;48.266;7.402;2022-12-07T17:21:38;25.60;;;15.10;;
43146;SDS011;28752;48.266;7.402;2022-12-07T17:24:05;23.52;;;13.65;;
43146;SDS011;28752;48.266;7.402;2022-12-07T17:26:32;23.10;;;14.77;;
43146;SDS011;28752;48.266;7.402;2022-12-07T17:28:58;24.38;;;12.50;;
43146;SDS011;28752;48.266;7.402;2022-12-07T17:31:24;23.48;;;13.65;;
43146;SDS011;28752;48.266;7.402;2022-12-07T17:36:17;28.52;;;15.18;;
43146;SDS011;28752;48.266;7.402;2022-12-07T17:38:45;24.80;;;14.85;;
43146;SDS011;28752;48.266;7.402;2022-12-07T17:41:13;25.25;;;14.50;;
43146;SDS011;28752;48.266;7.402;2022-12-07T17:44:04;24.52;;;15.23;;
43146;SDS011;28752;48.266;7.402;2022-12-07T17:46:31;24.63;;;15.77;;